sensor_id;sensor_type;location;lat;lon;timestamp;P1;durP1;ratioP1;P2;durP2;ratioP2
37917;SDS011;23749;51.410;21.130;2022-08-19T00:01:18;14.32;;;11.93;;
37917;SDS011;23749;51.410;21.130;2022-08-19T00:09:39;13.18;;;11.82;;
37917;SDS011;23749;51.410;21.130;2022-08-19T00:17:59;13.13;;;11.93;;
37917;SDS011;23749;51.410;21.130;2022-08-19T00:26:20;13.35;;;12.05;;
37917;SDS011;23749;51.410;21.130;2022-08-19T00:34:40;15.80;;;12.23;;
37917;SDS011;23749;51.410;21.130;2022-08-19T00:43:00;13.90;;;12.50;;
37917;SDS011;23749;51.410;21.130;2022-08-19T00:51:21;12.95;;;11.75;;
37917;SDS011;23749;51.410;21.130;2022-08-19T00:59:43;13.95;;;12.73;;
37917;SDS011;23749;51.410;21.130;2022-08-19T01:08:06;13.30;;;11.90;;
37917;SDS011;23749;51.410;21.130;2022-08-19T01:16:27;13.75;;;12.40;;
37917;SDS011;23749;51.410;21.130;2022-08-19T01:24:49;13.35;;;11.82;;
37917;SDS011;23749;51.410;21.130;2022-08-19T01:33:09;12.80;;;11.60;;
37917;SDS011;23749;51.410;21.130;2022-08-19T01:41:29;12.85;;;11.60;;
37917;SDS011;23749;51.410;21.130;2022-08-19T01:49:50;12.75;;;11.57;;
37917;SDS011;23749;51.410;21.130;2022-08-19T01:58:18;12.43;;;11.32;;
37917;SDS011;23749;51.410;21.130;2022-08-19T02:06:40;13.65;;;12.20;;
37917;SDS011;23749;51.410;21.130;2022-08-19T02:15:00;12.80;;;11.57;;
37917;SDS011;23749;51.410;21.130;2022-08-19T02:23:22;13.07;;;11.80;;
37917;SDS011;23749;51.410;21.130;2022-08-19T02:31:42;13.02;;;11.90;;
37917;SDS011;23749;51.410;21.130;2022-08-19T02:40:02;13.07;;;11.68;;
37917;SDS011;23749;51.410;21.130;2022-08-19T02:48:24;12.77;;;11.68;;
37917;SDS011;23749;51.410;21.130;2022-08-19T02:56:44;13.00;;;11.90;;
37917;SDS011;23749;51.410;21.130;2022-08-19T03:05:07;13.63;;;12.32;;
37917;SDS011;23749;51.410;21.130;2022-08-19T03:13:27;12.57;;;11.48;;
37917;SDS011;23749;51.410;21.130;2022-08-19T03:21:48;13.15;;;11.95;;
37917;SDS011;23749;51.410;21.130;2022-08-19T03:30:09;12.90;;;11.70;;
37917;SDS011;23749;51.410;21.130;2022-08-19T03:38:29;13.20;;;11.90;;
37917;SDS011;23749;51.410;21.130;2022-08-19T03:46:51;13.10;;;11.95;;
37917;SDS011;23749;51.410;21.130;2022-08-19T03:55:11;12.88;;;11.70;;
37917;SDS011;23749;51.410;21.130;2022-08-19T04:03:32;12.77;;;11.73;;
37917;SDS011;23749;51.410;21.130;2022-08-19T04:11:53;12.43;;;11.32;;
37917;SDS011;23749;51.410;21.130;2022-08-19T04:20:13;13.43;;;12.10;;
37917;SDS011;23749;51.410;21.130;2022-08-19T04:28:34;12.10;;;11.13;;
37917;SDS011;23749;51.410;21.130;2022-08-19T04:36:56;12.52;;;11.52;;
37917;SDS011;23749;51.410;21.130;2022-08-19T04:45:17;13.82;;;11.75;;
37917;SDS011;23749;51.410;21.130;2022-08-19T04:53:38;12.40;;;11.32;;
37917;SDS011;23749;51.410;21.130;2022-08-19T05:01:58;13.10;;;11.90;;
37917;SDS011;23749;51.410;21.130;2022-08-19T05:10:19;12.73;;;11.57;;
37917;SDS011;23749;51.410;21.130;2022-08-19T05:18:40;11.52;;;10.63;;
37917;SDS011;23749;51.410;21.130;2022-08-19T05:27:19;11.15;;;10.25;;
37917;SDS011;23749;51.410;21.130;2022-08-19T05:35:40;12.27;;;11.25;;
37917;SDS011;23749;51.410;21.130;2022-08-19T05:44:02;11.52;;;10.60;;
37917;SDS011;23749;51.410;21.130;2022-08-19T05:52:25;12.15;;;11.05;;
37917;SDS011;23749;51.410;21.130;2022-08-19T06:00:47;12.88;;;11.60;;
37917;SDS011;23749;51.410;21.130;2022-08-19T06:09:07;12.80;;;11.55;;
37917;SDS011;23749;51.410;21.130;2022-08-19T06:17:28;13.07;;;11.77;;
37917;SDS011;23749;51.410;21.130;2022-08-19T06:25:49;13.35;;;11.88;;
37917;SDS011;23749;51.410;21.130;2022-08-19T06:34:10;11.80;;;10.88;;
37917;SDS011;23749;51.410;21.130;2022-08-19T06:42:30;12.63;;;11.27;;
37917;SDS011;23749;51.410;21.130;2022-08-19T06:50:51;12.35;;;11.18;;
37917;SDS011;23749;51.410;21.130;2022-08-19T06:59:15;12.55;;;10.88;;
37917;SDS011;23749;51.410;21.130;2022-08-19T07:07:36;13.88;;;11.50;;
37917;SDS011;23749;51.410;21.130;2022-08-19T07:15:56;12.93;;;10.70;;
37917;SDS011;23749;51.410;21.130;2022-08-19T07:24:17;10.65;;;9.52;;
37917;SDS011;23749;51.410;21.130;2022-08-19T07:32:37;11.07;;;10.13;;
37917;SDS011;23749;51.410;21.130;2022-08-19T07:40:58;11.23;;;10.27;;
37917;SDS011;23749;51.410;21.130;2022-08-19T07:49:18;10.70;;;9.55;;
37917;SDS011;23749;51.410;21.130;2022-08-19T07:57:39;11.05;;;10.02;;
37917;SDS011;23749;51.410;21.130;2022-08-19T08:05:59;11.32;;;9.60;;
37917;SDS011;23749;51.410;21.130;2022-08-19T08:14:39;10.82;;;9.93;;
37917;SDS011;23749;51.410;21.130;2022-08-19T08:23:01;11.23;;;10.18;;
37917;SDS011;23749;51.410;21.130;2022-08-19T08:31:40;10.32;;;9.43;;
37917;SDS011;23749;51.410;21.130;2022-08-19T08:40:05;10.57;;;9.65;;
37917;SDS011;23749;51.410;21.130;2022-08-19T08:48:32;10.85;;;9.98;;
37917;SDS011;23749;51.410;21.130;2022-08-19T08:56:54;10.98;;;9.88;;
37917;SDS011;23749;51.410;21.130;2022-08-19T09:05:15;14.32;;;10.70;;
37917;SDS011;23749;51.410;21.130;2022-08-19T09:13:44;10.80;;;9.82;;
37917;SDS011;23749;51.410;21.130;2022-08-19T09:22:09;11.82;;;10.40;;
37917;SDS011;23749;51.410;21.130;2022-08-19T09:30:32;11.38;;;10.10;;
37917;SDS011;23749;51.410;21.130;2022-08-19T09:38:53;10.68;;;9.68;;
37917;SDS011;23749;51.410;21.130;2022-08-19T09:47:13;10.52;;;9.70;;
37917;SDS011;23749;51.410;21.130;2022-08-19T09:55:33;10.65;;;9.65;;
37917;SDS011;23749;51.410;21.130;2022-08-19T10:03:54;10.93;;;9.93;;
37917;SDS011;23749;51.410;21.130;2022-08-19T10:12:15;10.23;;;9.32;;
37917;SDS011;23749;51.410;21.130;2022-08-19T10:20:36;10.43;;;9.52;;
37917;SDS011;23749;51.410;21.130;2022-08-19T10:28:57;10.68;;;9.70;;
37917;SDS011;23749;51.410;21.130;2022-08-19T10:37:17;10.80;;;9.70;;
37917;SDS011;23749;51.410;21.130;2022-08-19T10:45:37;9.77;;;8.93;;
37917;SDS011;23749;51.410;21.130;2022-08-19T10:53:58;9.88;;;8.98;;
37917;SDS011;23749;51.410;21.130;2022-08-19T11:02:18;10.23;;;9.27;;
37917;SDS011;23749;51.410;21.130;2022-08-19T11:10:42;9.52;;;8.75;;
37917;SDS011;23749;51.410;21.130;2022-08-19T11:19:02;10.07;;;9.18;;
37917;SDS011;23749;51.410;21.130;2022-08-19T11:27:23;10.30;;;9.32;;
37917;SDS011;23749;51.410;21.130;2022-08-19T11:35:43;10.20;;;9.15;;
37917;SDS011;23749;51.410;21.130;2022-08-19T11:44:03;9.80;;;9.00;;
37917;SDS011;23749;51.410;21.130;2022-08-19T11:52:24;9.43;;;8.57;;
37917;SDS011;23749;51.410;21.130;2022-08-19T12:00:45;9.50;;;8.70;;
37917;SDS011;23749;51.410;21.130;2022-08-19T12:09:06;10.20;;;8.85;;
37917;SDS011;23749;51.410;21.130;2022-08-19T12:17:28;9.63;;;8.82;;
37917;SDS011;23749;51.410;21.130;2022-08-19T12:25:50;9.48;;;8.68;;
37917;SDS011;23749;51.410;21.130;2022-08-19T12:34:11;9.07;;;8.27;;
37917;SDS011;23749;51.410;21.130;2022-08-19T12:42:31;9.15;;;8.45;;
37917;SDS011;23749;51.410;21.130;2022-08-19T12:50:52;9.02;;;8.18;;
37917;SDS011;23749;51.410;21.130;2022-08-19T12:59:13;9.60;;;8.80;;
37917;SDS011;23749;51.410;21.130;2022-08-19T13:07:34;9.20;;;8.40;;
37917;SDS011;23749;51.410;21.130;2022-08-19T13:15:59;10.73;;;8.70;;
37917;SDS011;23749;51.410;21.130;2022-08-19T13:24:21;9.38;;;7.70;;
37917;SDS011;23749;51.410;21.130;2022-08-19T13:32:41;8.43;;;7.82;;
37917;SDS011;23749;51.410;21.130;2022-08-19T13:41:20;7.40;;;6.82;;
37917;SDS011;23749;51.410;21.130;2022-08-19T13:49:41;7.43;;;6.72;;
37917;SDS011;23749;51.410;21.130;2022-08-19T13:58:01;8.00;;;7.40;;
37917;SDS011;23749;51.410;21.130;2022-08-19T14:06:22;7.57;;;7.05;;
37917;SDS011;23749;51.410;21.130;2022-08-19T14:14:43;6.97;;;6.35;;
37917;SDS011;23749;51.410;21.130;2022-08-19T14:23:03;7.72;;;7.03;;
37917;SDS011;23749;51.410;21.130;2022-08-19T14:31:25;6.97;;;6.38;;
37917;SDS011;23749;51.410;21.130;2022-08-19T14:39:46;7.35;;;6.75;;
37917;SDS011;23749;51.410;21.130;2022-08-19T14:48:07;7.20;;;6.70;;
37917;SDS011;23749;51.410;21.130;2022-08-19T14:56:28;7.53;;;6.93;;
37917;SDS011;23749;51.410;21.130;2022-08-19T15:04:49;7.85;;;7.05;;
37917;SDS011;23749;51.410;21.130;2022-08-19T15:13:10;7.15;;;6.50;;
37917;SDS011;23749;51.410;21.130;2022-08-19T15:21:30;7.18;;;6.50;;
37917;SDS011;23749;51.410;21.130;2022-08-19T15:29:50;7.43;;;6.82;;
37917;SDS011;23749;51.410;21.130;2022-08-19T15:38:11;6.97;;;6.47;;
37917;SDS011;23749;51.410;21.130;2022-08-19T15:46:33;7.85;;;7.20;;
37917;SDS011;23749;51.410;21.130;2022-08-19T15:54:53;7.82;;;7.18;;
37917;SDS011;23749;51.410;21.130;2022-08-19T16:03:14;8.02;;;7.32;;
37917;SDS011;23749;51.410;21.130;2022-08-19T16:11:53;7.75;;;7.10;;
37917;SDS011;23749;51.410;21.130;2022-08-19T16:20:13;7.55;;;6.90;;
37917;SDS011;23749;51.410;21.130;2022-08-19T16:28:35;7.30;;;6.80;;
37917;SDS011;23749;51.410;21.130;2022-08-19T16:36:56;7.85;;;7.05;;
37917;SDS011;23749;51.410;21.130;2022-08-19T16:45:16;7.43;;;6.70;;
37917;SDS011;23749;51.410;21.130;2022-08-19T16:53:39;7.80;;;7.10;;
37917;SDS011;23749;51.410;21.130;2022-08-19T17:01:59;8.25;;;7.45;;
37917;SDS011;23749;51.410;21.130;2022-08-19T17:10:20;9.02;;;7.80;;
37917;SDS011;23749;51.410;21.130;2022-08-19T17:18:40;8.30;;;7.50;;
37917;SDS011;23749;51.410;21.130;2022-08-19T17:27:01;9.40;;;8.20;;
37917;SDS011;23749;51.410;21.130;2022-08-19T17:35:21;8.07;;;7.30;;
37917;SDS011;23749;51.410;21.130;2022-08-19T17:43:41;8.38;;;7.10;;
37917;SDS011;23749;51.410;21.130;2022-08-19T17:52:02;8.40;;;7.40;;
37917;SDS011;23749;51.410;21.130;2022-08-19T18:00:22;8.95;;;8.00;;
37917;SDS011;23749;51.410;21.130;2022-08-19T18:08:43;9.77;;;8.13;;
37917;SDS011;23749;51.410;21.130;2022-08-19T18:17:06;10.13;;;7.85;;
37917;SDS011;23749;51.410;21.130;2022-08-19T18:25:28;10.60;;;7.85;;
37917;SDS011;23749;51.410;21.130;2022-08-19T18:33:51;8.50;;;7.63;;
37917;SDS011;23749;51.410;21.130;2022-08-19T18:42:13;8.77;;;7.32;;
37917;SDS011;23749;51.410;21.130;2022-08-19T18:50:52;9.32;;;7.75;;
37917;SDS011;23749;51.410;21.130;2022-08-19T18:59:13;8.48;;;7.65;;
37917;SDS011;23749;51.410;21.130;2022-08-19T19:07:33;9.00;;;7.35;;
37917;SDS011;23749;51.410;21.130;2022-08-19T19:15:54;7.63;;;6.90;;
37917;SDS011;23749;51.410;21.130;2022-08-19T19:24:21;8.05;;;7.28;;
37917;SDS011;23749;51.410;21.130;2022-08-19T19:32:42;8.60;;;7.40;;
37917;SDS011;23749;51.410;21.130;2022-08-19T19:41:02;7.85;;;7.13;;
37917;SDS011;23749;51.410;21.130;2022-08-19T19:49:23;7.78;;;6.90;;
37917;SDS011;23749;51.410;21.130;2022-08-19T19:57:44;7.28;;;6.63;;
37917;SDS011;23749;51.410;21.130;2022-08-19T20:06:05;10.00;;;7.10;;
37917;SDS011;23749;51.410;21.130;2022-08-19T20:14:27;7.00;;;6.32;;
37917;SDS011;23749;51.410;21.130;2022-08-19T20:22:50;7.47;;;6.88;;
37917;SDS011;23749;51.410;21.130;2022-08-19T20:31:10;10.13;;;7.18;;
37917;SDS011;23749;51.410;21.130;2022-08-19T20:39:31;7.20;;;6.50;;
37917;SDS011;23749;51.410;21.130;2022-08-19T20:47:51;7.20;;;6.60;;
37917;SDS011;23749;51.410;21.130;2022-08-19T20:56:11;7.88;;;7.18;;
37917;SDS011;23749;51.410;21.130;2022-08-19T21:04:32;9.70;;;7.20;;
37917;SDS011;23749;51.410;21.130;2022-08-19T21:12:52;6.97;;;6.38;;
37917;SDS011;23749;51.410;21.130;2022-08-19T21:21:13;11.77;;;7.20;;
37917;SDS011;23749;51.410;21.130;2022-08-19T21:29:34;8.65;;;7.10;;
37917;SDS011;23749;51.410;21.130;2022-08-19T21:37:56;7.40;;;6.80;;
37917;SDS011;23749;51.410;21.130;2022-08-19T21:46:16;7.20;;;6.43;;
37917;SDS011;23749;51.410;21.130;2022-08-19T21:54:37;6.88;;;6.18;;
37917;SDS011;23749;51.410;21.130;2022-08-19T22:02:57;6.88;;;6.30;;
37917;SDS011;23749;51.410;21.130;2022-08-19T22:11:18;8.43;;;6.28;;
37917;SDS011;23749;51.410;21.130;2022-08-19T22:19:38;7.40;;;6.68;;
37917;SDS011;23749;51.410;21.130;2022-08-19T22:27:59;7.00;;;6.40;;
37917;SDS011;23749;51.410;21.130;2022-08-19T22:36:21;8.52;;;6.78;;
37917;SDS011;23749;51.410;21.130;2022-08-19T22:44:41;7.53;;;6.80;;
37917;SDS011;23749;51.410;21.130;2022-08-19T22:53:01;9.05;;;6.90;;
37917;SDS011;23749;51.410;21.130;2022-08-19T23:01:22;11.30;;;7.20;;
37917;SDS011;23749;51.410;21.130;2022-08-19T23:09:44;8.82;;;6.63;;
37917;SDS011;23749;51.410;21.130;2022-08-19T23:18:04;6.97;;;6.25;;
37917;SDS011;23749;51.410;21.130;2022-08-19T23:26:24;8.15;;;7.35;;
37917;SDS011;23749;51.410;21.130;2022-08-19T23:34:45;8.07;;;7.20;;
37917;SDS011;23749;51.410;21.130;2022-08-19T23:43:05;8.43;;;7.10;;
37917;SDS011;23749;51.410;21.130;2022-08-19T23:51:26;7.40;;;6.70;;
37917;SDS011;23749;51.410;21.130;2022-08-19T23:59:46;7.28;;;6.57;;
